Startpagina
METAR-TAF:

METAR-TAF

Vliegvelden :

Puerto Limón, Costa Rica

breedte: 10-00N, lengte: 083-03W, hoogte: 5 m

Actueel weer

Dit bericht is 15 minuten geleden gemaakt, om 21:00 UTC
Wind 7 kt uit het oostnoordoosten
Temperatuur 29°C
Vochtigheid 62%
Druk 1012 hPa
Zicht 10 km of meer
Weinig wolken op 3000 ft

METAR: MRLM 232100Z 07007KT 9999 FEW030 29/21 A2989

Tijdstip: 15:15 (21:15 UTC)

Verwachting

Dit bericht is 4 uur en het 15 minuten geleden gemaakt, om 17:00 UTC
Verwachting geldig van 23 om 18 UTC tot 24 om 18 UTC
Wind 6 kt uit het oosten
Zicht 10 km of meer
Weinig wolken op 3000 ft
Wijzigt naar
van 24 om 00 UTC tot 24 om 02 UTC
Wind 5 kt uit het zuidwesten
Wijzigt naar
van 24 om 14 UTC tot 24 om 16 UTC
Wind 7 kt uit het oostnoordoosten

TAF: MRLM 231700Z 2318/2418 09006KT 9999 FEW030 TX30/2320Z TN21/2412Z BECMG 2400/2402 23005KT BECMG 2414/2416 07007KT

Waarnemingen en weersverwachtingen van meer dan 4000 vliegvelden (METAR en TAF).

De beschikbare stations zijn de gele en rode punten op de kaart.

Ga met uw muis naar het station om de naam te zien.

Klik dan om waarnemingen en weersverwachtingen te zien.

kaart wijzigen: klik op de groene knoppen met een zwart kruis om in te zoomen, op de groene knop met een streepje om uit te zoomen of op de groene pijlen voor aangrenzende kaarten.


METAR-TAF: